sensor_id;sensor_type;location;lat;lon;timestamp;pressure;altitude;pressure_sealevel;temperature;humidity
27685;BME280;46113;50.130;8.526;2022-12-18T05:18:10;101472.84;;;-13.31;67.56
27685;BME280;46113;50.130;8.526;2022-12-18T05:20:36;101471.44;;;-13.28;67.25
27685;BME280;46113;50.130;8.526;2022-12-18T05:23:03;101477.47;;;-13.38;68.01
27685;BME280;46113;50.130;8.526;2022-12-18T05:25:30;101477.72;;;-13.34;68.36
27685;BME280;46113;50.130;8.526;2022-12-18T05:27:56;101469.63;;;-13.29;67.31
27685;BME280;46113;50.130;8.526;2022-12-18T05:30:23;101471.44;;;-13.28;67.86
27685;BME280;46113;50.130;8.526;2022-12-18T05:32:49;101475.06;;;-13.36;67.39
27685;BME280;46113;50.130;8.526;2022-12-18T05:35:16;101475.47;;;-13.42;67.99
27685;BME280;46113;50.130;8.526;2022-12-18T05:37:43;101472.91;;;-13.42;67.89
27685;BME280;46113;50.130;8.526;2022-12-18T05:40:10;101459.09;;;-13.33;67.77
27685;BME280;46113;50.130;8.526;2022-12-18T05:42:37;101462.78;;;-13.30;67.28
27685;BME280;46113;50.130;8.526;2022-12-18T05:45:04;101464.44;;;-13.30;67.45
27685;BME280;46113;50.130;8.526;2022-12-18T05:47:31;101462.09;;;-13.27;67.08
27685;BME280;46113;50.130;8.526;2022-12-18T05:49:58;101459.09;;;-13.33;67.76
27685;BME280;46113;50.130;8.526;2022-12-18T05:52:24;101457.47;;;-13.33;67.34
27685;BME280;46113;50.130;8.526;2022-12-18T05:54:51;101462.19;;;-13.38;67.76
27685;BME280;46113;50.130;8.526;2022-12-18T05:57:18;101459.53;;;-13.39;67.46
27685;BME280;46113;50.130;8.526;2022-12-18T05:59:45;101459.53;;;-13.39;68.14
27685;BME280;46113;50.130;8.526;2022-12-18T06:02:11;101462.84;;;-13.52;68.41
27685;BME280;46113;50.130;8.526;2022-12-18T06:04:38;101470.50;;;-13.52;68.13
27685;BME280;46113;50.130;8.526;2022-12-18T06:07:05;101467.38;;;-13.48;68.02
27685;BME280;46113;50.130;8.526;2022-12-18T06:09:34;101473.56;;;-13.44;68.21
27685;BME280;46113;50.130;8.526;2022-12-18T06:12:00;101472.84;;;-13.43;68.39
27685;BME280;46113;50.130;8.526;2022-12-18T06:14:28;101471.16;;;-13.43;68.35
27685;BME280;46113;50.130;8.526;2022-12-18T06:16:55;101480.41;;;-13.33;68.23
27685;BME280;46113;50.130;8.526;2022-12-18T06:19:21;101480.28;;;-13.34;67.91
27685;BME280;46113;50.130;8.526;2022-12-18T06:21:48;101485.50;;;-13.33;67.70
27685;BME280;46113;50.130;8.526;2022-12-18T06:24:15;101482.81;;;-13.34;67.20
27685;BME280;46113;50.130;8.526;2022-12-18T06:26:42;101485.59;;;-13.31;67.47
27685;BME280;46113;50.130;8.526;2022-12-18T06:29:09;101493.88;;;-13.34;66.98
27685;BME280;46113;50.130;8.526;2022-12-18T06:31:36;101492.06;;;-13.47;67.48
27685;BME280;46113;50.130;8.526;2022-12-18T06:34:03;101495.31;;;-13.38;67.85
27685;BME280;46113;50.130;8.526;2022-12-18T06:36:33;101495.03;;;-13.30;66.88
27685;BME280;46113;50.130;8.526;2022-12-18T06:39:00;101493.66;;;-13.37;66.42
27685;BME280;46113;50.130;8.526;2022-12-18T06:41:27;101496.56;;;-13.32;67.04
27685;BME280;46113;50.130;8.526;2022-12-18T06:43:54;101499.44;;;-13.40;67.62
27685;BME280;46113;50.130;8.526;2022-12-18T06:46:27;101504.81;;;-13.47;67.69
27685;BME280;46113;50.130;8.526;2022-12-18T06:48:54;101508.47;;;-13.55;67.80
27685;BME280;46113;50.130;8.526;2022-12-18T06:51:21;101509.56;;;-13.52;67.69
27685;BME280;46113;50.130;8.526;2022-12-18T06:53:49;101506.03;;;-13.42;67.87
27685;BME280;46113;50.130;8.526;2022-12-18T06:56:16;101509.16;;;-13.46;67.90
27685;BME280;46113;50.130;8.526;2022-12-18T06:58:42;101514.00;;;-13.49;68.35
27685;BME280;46113;50.130;8.526;2022-12-18T07:01:10;101517.31;;;-13.50;68.46
27685;BME280;46113;50.130;8.526;2022-12-18T07:03:41;101508.38;;;-13.45;68.03
27685;BME280;46113;50.130;8.526;2022-12-18T07:06:17;101518.56;;;-13.45;68.46
27685;BME280;46113;50.130;8.526;2022-12-18T07:08:46;101513.28;;;-13.36;68.18
27685;BME280;46113;50.130;8.526;2022-12-18T07:11:13;101520.00;;;-13.48;68.50
27685;BME280;46113;50.130;8.526;2022-12-18T07:13:40;101516.69;;;-13.47;68.58
27685;BME280;46113;50.130;8.526;2022-12-18T07:16:15;101520.66;;;-13.51;68.85
27685;BME280;46113;50.130;8.526;2022-12-18T07:18:50;101517.44;;;-13.60;69.25
27685;BME280;46113;50.130;8.526;2022-12-18T07:21:19;101518.56;;;-13.45;69.68
27685;BME280;46113;50.130;8.526;2022-12-18T07:23:46;101515.81;;;-13.36;68.49
27685;BME280;46113;50.130;8.526;2022-12-18T07:26:16;101514.19;;;-13.35;67.82
27685;BME280;46113;50.130;8.526;2022-12-18T07:28:44;101498.66;;;-13.39;68.40
27685;BME280;46113;50.130;8.526;2022-12-18T07:31:15;101507.41;;;-13.35;67.80
27685;BME280;46113;50.130;8.526;2022-12-18T07:33:44;101507.81;;;-13.53;67.79
27685;BME280;46113;50.130;8.526;2022-12-18T07:36:11;101500.50;;;-13.48;69.79
27685;BME280;46113;50.130;8.526;2022-12-18T07:38:39;101509.00;;;-13.25;69.90
27685;BME280;46113;50.130;8.526;2022-12-18T07:41:09;101513.00;;;-13.17;69.22
27685;BME280;46113;50.130;8.526;2022-12-18T07:43:36;101512.78;;;-13.20;69.19
27685;BME280;46113;50.130;8.526;2022-12-18T07:46:05;101517.31;;;-13.28;69.23
27685;BME280;46113;50.130;8.526;2022-12-18T07:48:32;101511.47;;;-13.15;68.95
27685;BME280;46113;50.130;8.526;2022-12-18T07:51:00;101518.25;;;-13.38;69.29
27685;BME280;46113;50.130;8.526;2022-12-18T07:53:27;101510.78;;;-13.24;68.80
27685;BME280;46113;50.130;8.526;2022-12-18T07:55:58;101513.53;;;-13.21;68.89
27685;BME280;46113;50.130;8.526;2022-12-18T07:58:45;101509.91;;;-13.13;68.86
27685;BME280;46113;50.130;8.526;2022-12-18T08:01:14;101517.22;;;-13.17;68.61
27685;BME280;46113;50.130;8.526;2022-12-18T08:04:07;101512.81;;;-13.08;68.79
27685;BME280;46113;50.130;8.526;2022-12-18T08:06:34;101515.38;;;-13.08;68.58
27685;BME280;46113;50.130;8.526;2022-12-18T08:09:02;101524.25;;;-13.03;68.88
27685;BME280;46113;50.130;8.526;2022-12-18T08:11:29;101524.53;;;-13.10;69.20
27685;BME280;46113;50.130;8.526;2022-12-18T08:13:56;101521.91;;;-13.00;69.14
27685;BME280;46113;50.130;8.526;2022-12-18T08:16:24;101523.69;;;-12.87;69.40
27685;BME280;46113;50.130;8.526;2022-12-18T08:18:52;101525.72;;;-12.82;68.93
27685;BME280;46113;50.130;8.526;2022-12-18T08:21:26;101529.06;;;-12.72;68.99
27685;BME280;46113;50.130;8.526;2022-12-18T08:23:55;101527.31;;;-12.73;68.87
27685;BME280;46113;50.130;8.526;2022-12-18T08:26:24;101519.19;;;-12.67;68.79
27685;BME280;46113;50.130;8.526;2022-12-18T08:28:53;101527.50;;;-12.69;69.75
27685;BME280;46113;50.130;8.526;2022-12-18T08:31:20;101523.53;;;-12.54;70.09
27685;BME280;46113;50.130;8.526;2022-12-18T08:33:50;101523.50;;;-12.66;69.97
27685;BME280;46113;50.130;8.526;2022-12-18T08:36:20;101515.44;;;-12.60;70.12
27685;BME280;46113;50.130;8.526;2022-12-18T08:38:47;101517.66;;;-12.65;70.36
27685;BME280;46113;50.130;8.526;2022-12-18T08:41:15;101510.22;;;-12.62;70.24
27685;BME280;46113;50.130;8.526;2022-12-18T08:43:42;101513.78;;;-12.60;70.50
27685;BME280;46113;50.130;8.526;2022-12-18T08:46:32;101509.78;;;-12.44;70.37
27685;BME280;46113;50.130;8.526;2022-12-18T08:49:01;101507.78;;;-12.48;71.11
27685;BME280;46113;50.130;8.526;2022-12-18T08:51:28;101509.31;;;-12.38;71.09
27685;BME280;46113;50.130;8.526;2022-12-18T08:53:55;101499.47;;;-12.34;71.19
27685;BME280;46113;50.130;8.526;2022-12-18T08:56:21;101497.22;;;-12.17;70.88
27685;BME280;46113;50.130;8.526;2022-12-18T08:58:51;101500.19;;;-12.11;70.51
27685;BME280;46113;50.130;8.526;2022-12-18T09:01:18;101499.22;;;-12.13;71.02
27685;BME280;46113;50.130;8.526;2022-12-18T09:03:45;101499.75;;;-12.05;71.12
27685;BME280;46113;50.130;8.526;2022-12-18T09:06:19;101501.13;;;-11.85;71.11
27685;BME280;46113;50.130;8.526;2022-12-18T09:08:47;101499.44;;;-11.72;71.76
27685;BME280;46113;50.130;8.526;2022-12-18T09:11:28;101506.81;;;-11.52;71.52
27685;BME280;46113;50.130;8.526;2022-12-18T09:13:55;101514.31;;;-11.41;71.96
27685;BME280;46113;50.130;8.526;2022-12-18T09:16:24;101516.94;;;-11.28;72.16
27685;BME280;46113;50.130;8.526;2022-12-18T09:18:58;101521.88;;;-11.17;72.08
27685;BME280;46113;50.130;8.526;2022-12-18T09:21:34;101522.28;;;-11.11;71.76
27685;BME280;46113;50.130;8.526;2022-12-18T09:24:17;101516.50;;;-10.95;71.66
27685;BME280;46113;50.130;8.526;2022-12-18T09:27:03;101525.53;;;-11.00;72.47
27685;BME280;46113;50.130;8.526;2022-12-18T09:29:37;101516.41;;;-10.83;72.10
27685;BME280;46113;50.130;8.526;2022-12-18T09:32:22;101534.25;;;-10.71;72.53
27685;BME280;46113;50.130;8.526;2022-12-18T09:35:09;101530.13;;;-10.55;71.79
27685;BME280;46113;50.130;8.526;2022-12-18T09:37:35;101531.22;;;-10.38;71.73
27685;BME280;46113;50.130;8.526;2022-12-18T09:40:02;101532.38;;;-10.33;71.92
27685;BME280;46113;50.130;8.526;2022-12-18T09:42:33;101533.19;;;-10.21;71.41
27685;BME280;46113;50.130;8.526;2022-12-18T09:45:00;101530.81;;;-10.04;71.85
27685;BME280;46113;50.130;8.526;2022-12-18T09:47:30;101530.50;;;-9.95;71.46
27685;BME280;46113;50.130;8.526;2022-12-18T09:50:03;101530.34;;;-9.70;71.66
27685;BME280;46113;50.130;8.526;2022-12-18T09:52:45;101529.59;;;-9.54;70.80
27685;BME280;46113;50.130;8.526;2022-12-18T09:55:31;101531.06;;;-9.29;70.02
27685;BME280;46113;50.130;8.526;2022-12-18T09:58:18;101525.97;;;-9.57;70.00
27685;BME280;46113;50.130;8.526;2022-12-18T10:00:47;101533.19;;;-9.36;70.55
27685;BME280;46113;50.130;8.526;2022-12-18T10:03:15;101535.44;;;-9.28;69.35
27685;BME280;46113;50.130;8.526;2022-12-18T10:05:58;101530.56;;;-9.38;69.29
27685;BME280;46113;50.130;8.526;2022-12-18T10:08:47;101538.50;;;-9.33;69.33
27685;BME280;46113;50.130;8.526;2022-12-18T10:11:47;101536.88;;;-9.18;68.79
27685;BME280;46113;50.130;8.526;2022-12-18T10:20:23;101511.69;;;-8.65;68.92
27685;BME280;46113;50.130;8.526;2022-12-18T10:28:16;101502.16;;;-8.04;66.67
27685;BME280;46113;50.130;8.526;2022-12-18T10:30:44;101498.56;;;-7.91;66.41
27685;BME280;46113;50.130;8.526;2022-12-18T10:33:16;101503.31;;;-7.82;66.42
27685;BME280;46113;50.130;8.526;2022-12-18T10:35:43;101506.78;;;-7.82;66.24
27685;BME280;46113;50.130;8.526;2022-12-18T10:38:27;101520.03;;;-7.90;66.16
27685;BME280;46113;50.130;8.526;2022-12-18T10:44:21;101520.25;;;-8.02;65.94
27685;BME280;46113;50.130;8.526;2022-12-18T10:47:03;101518.03;;;-7.80;65.66
27685;BME280;46113;50.130;8.526;2022-12-18T10:49:47;101521.53;;;-7.94;66.15
27685;BME280;46113;50.130;8.526;2022-12-18T10:52:17;101525.00;;;-7.94;65.14
27685;BME280;46113;50.130;8.526;2022-12-18T10:55:01;101508.47;;;-7.82;65.38
27685;BME280;46113;50.130;8.526;2022-12-18T10:57:36;101503.38;;;-8.14;65.26
27685;BME280;46113;50.130;8.526;2022-12-18T11:00:27;101510.28;;;-8.13;65.50
27685;BME280;46113;50.130;8.526;2022-12-18T11:03:43;101524.50;;;-8.50;65.53
27685;BME280;46113;50.130;8.526;2022-12-18T11:06:12;101519.50;;;-8.32;66.10
27685;BME280;46113;50.130;8.526;2022-12-18T11:08:42;101507.72;;;-8.28;66.06
27685;BME280;46113;50.130;8.526;2022-12-18T11:11:36;101504.63;;;-8.22;65.92
27685;BME280;46113;50.130;8.526;2022-12-18T11:16:47;101513.38;;;-7.87;64.85
27685;BME280;46113;50.130;8.526;2022-12-18T11:19:39;101513.34;;;-8.03;65.12
27685;BME280;46113;50.130;8.526;2022-12-18T11:22:22;101516.47;;;-7.93;65.40
27685;BME280;46113;50.130;8.526;2022-12-18T11:24:56;101504.66;;;-8.06;65.03
27685;BME280;46113;50.130;8.526;2022-12-18T11:27:53;101505.38;;;-8.08;65.19
27685;BME280;46113;50.130;8.526;2022-12-18T11:30:24;101505.16;;;-7.96;65.42
27685;BME280;46113;50.130;8.526;2022-12-18T11:32:54;101507.28;;;-8.21;65.70
27685;BME280;46113;50.130;8.526;2022-12-18T11:38:00;101489.72;;;-8.13;65.96
27685;BME280;46113;50.130;8.526;2022-12-18T11:40:35;101493.16;;;-8.12;66.17
27685;BME280;46113;50.130;8.526;2022-12-18T11:43:13;101498.66;;;-8.06;65.70
27685;BME280;46113;50.130;8.526;2022-12-18T11:46:03;101499.66;;;-7.71;65.12
27685;BME280;46113;50.130;8.526;2022-12-18T11:48:44;101492.81;;;-7.70;64.56
27685;BME280;46113;50.130;8.526;2022-12-18T11:51:25;101497.09;;;-7.71;64.21
27685;BME280;46113;50.130;8.526;2022-12-18T11:53:54;101488.22;;;-7.93;65.44
27685;BME280;46113;50.130;8.526;2022-12-18T11:56:35;101493.41;;;-7.76;64.82
27685;BME280;46113;50.130;8.526;2022-12-18T12:02:18;101494.75;;;-7.83;64.30
27685;BME280;46113;50.130;8.526;2022-12-18T12:08:19;101490.88;;;-7.74;64.37
27685;BME280;46113;50.130;8.526;2022-12-18T12:15:55;101485.19;;;-7.52;64.15
27685;BME280;46113;50.130;8.526;2022-12-18T12:22:22;101486.34;;;-7.95;65.40
27685;BME280;46113;50.130;8.526;2022-12-18T12:27:08;101493.41;;;-8.39;66.43
27685;BME280;46113;50.130;8.526;2022-12-18T12:30:22;101478.44;;;-7.83;66.23
27685;BME280;46113;50.130;8.526;2022-12-18T12:38:53;101472.72;;;-7.44;63.96
27685;BME280;46113;50.130;8.526;2022-12-18T12:41:24;101468.38;;;-7.45;62.89
27685;BME280;46113;50.130;8.526;2022-12-18T12:44:28;101456.97;;;-7.50;63.55
27685;BME280;46113;50.130;8.526;2022-12-18T12:47:00;101452.78;;;-7.32;63.55
27685;BME280;46113;50.130;8.526;2022-12-18T12:49:33;101457.00;;;-7.67;64.57
27685;BME280;46113;50.130;8.526;2022-12-18T12:52:10;101452.56;;;-7.86;65.56
27685;BME280;46113;50.130;8.526;2022-12-18T12:54:39;101448.22;;;-7.87;66.14
27685;BME280;46113;50.130;8.526;2022-12-18T12:57:13;101450.88;;;-7.53;65.74
27685;BME280;46113;50.130;8.526;2022-12-18T12:59:56;101454.66;;;-7.62;65.39
27685;BME280;46113;50.130;8.526;2022-12-18T13:08:09;101452.72;;;-7.83;65.88
27685;BME280;46113;50.130;8.526;2022-12-18T13:10:40;101444.06;;;-7.69;65.91
27685;BME280;46113;50.130;8.526;2022-12-18T13:13:12;101442.19;;;-7.55;65.21
27685;BME280;46113;50.130;8.526;2022-12-18T13:16:06;101432.72;;;-7.72;64.89
27685;BME280;46113;50.130;8.526;2022-12-18T13:18:34;101432.06;;;-7.51;65.49
27685;BME280;46113;50.130;8.526;2022-12-18T13:21:12;101434.00;;;-7.47;64.97
27685;BME280;46113;50.130;8.526;2022-12-18T13:23:44;101435.94;;;-7.76;65.38
27685;BME280;46113;50.130;8.526;2022-12-18T13:34:20;101416.78;;;-7.48;65.73
27685;BME280;46113;50.130;8.526;2022-12-18T13:39:43;101422.91;;;-7.46;66.03
27685;BME280;46113;50.130;8.526;2022-12-18T13:44:56;101410.47;;;-7.20;65.90
27685;BME280;46113;50.130;8.526;2022-12-18T13:47:31;101413.56;;;-7.44;65.64
27685;BME280;46113;50.130;8.526;2022-12-18T13:49:59;101415.91;;;-7.49;65.71
27685;BME280;46113;50.130;8.526;2022-12-18T13:52:36;101406.47;;;-7.32;65.53
27685;BME280;46113;50.130;8.526;2022-12-18T13:55:06;101401.78;;;-7.22;65.26
27685;BME280;46113;50.130;8.526;2022-12-18T13:57:36;101398.88;;;-7.29;65.64
27685;BME280;46113;50.130;8.526;2022-12-18T14:02:51;101400.06;;;-7.40;66.16
27685;BME280;46113;50.130;8.526;2022-12-18T14:05:28;101398.25;;;-7.24;65.86
27685;BME280;46113;50.130;8.526;2022-12-18T14:08:08;101399.25;;;-7.39;65.61
27685;BME280;46113;50.130;8.526;2022-12-18T14:10:41;101401.34;;;-7.48;65.93
27685;BME280;46113;50.130;8.526;2022-12-18T14:13:24;101400.06;;;-7.40;66.55
27685;BME280;46113;50.130;8.526;2022-12-18T14:15:55;101399.50;;;-7.51;66.28
27685;BME280;46113;50.130;8.526;2022-12-18T14:18:30;101398.84;;;-7.47;66.54
27685;BME280;46113;50.130;8.526;2022-12-18T14:21:00;101403.59;;;-7.38;66.76
27685;BME280;46113;50.130;8.526;2022-12-18T14:23:35;101411.69;;;-7.30;66.56
27685;BME280;46113;50.130;8.526;2022-12-18T14:26:22;101408.78;;;-7.20;66.39
27685;BME280;46113;50.130;8.526;2022-12-18T14:28:49;101408.22;;;-7.31;66.13
27685;BME280;46113;50.130;8.526;2022-12-18T14:31:24;101408.03;;;-7.35;66.79
27685;BME280;46113;50.130;8.526;2022-12-18T14:33:52;101390.59;;;-7.23;66.32
27685;BME280;46113;50.130;8.526;2022-12-18T14:36:22;101398.69;;;-7.15;65.98
27685;BME280;46113;50.130;8.526;2022-12-18T14:38:57;101405.47;;;-7.17;65.92
27685;BME280;46113;50.130;8.526;2022-12-18T14:41:25;101401.44;;;-7.12;65.70
27685;BME280;46113;50.130;8.526;2022-12-18T14:43:53;101400.84;;;-6.88;63.76
27685;BME280;46113;50.130;8.526;2022-12-18T14:46:34;101404.81;;;-7.48;66.86
27685;BME280;46113;50.130;8.526;2022-12-18T14:49:29;101396.16;;;-7.50;67.06
27685;BME280;46113;50.130;8.526;2022-12-18T14:52:28;101393.03;;;-7.61;67.26
27685;BME280;46113;50.130;8.526;2022-12-18T14:54:57;101391.56;;;-7.56;67.18
27685;BME280;46113;50.130;8.526;2022-12-18T14:57:25;101396.47;;;-7.60;68.05
27685;BME280;46113;50.130;8.526;2022-12-18T15:00:07;101388.59;;;-7.63;67.64
27685;BME280;46113;50.130;8.526;2022-12-18T15:02:41;101395.81;;;-7.56;68.01
27685;BME280;46113;50.130;8.526;2022-12-18T15:07:53;101382.13;;;-7.73;68.56
27685;BME280;46113;50.130;8.526;2022-12-18T15:10:25;101381.69;;;-7.64;68.53
27685;BME280;46113;50.130;8.526;2022-12-18T15:18:12;101376.56;;;-7.64;68.22
27685;BME280;46113;50.130;8.526;2022-12-18T15:20:50;101374.97;;;-7.79;68.60
27685;BME280;46113;50.130;8.526;2022-12-18T15:25:57;101383.09;;;-7.88;69.10
27685;BME280;46113;50.130;8.526;2022-12-18T15:28:50;101377.88;;;-7.89;69.22
27685;BME280;46113;50.130;8.526;2022-12-18T15:33:46;101365.81;;;-7.90;69.74
27685;BME280;46113;50.130;8.526;2022-12-18T15:36:26;101361.72;;;-7.87;69.91
27685;BME280;46113;50.130;8.526;2022-12-18T15:38:54;101357.47;;;-7.86;69.85
27685;BME280;46113;50.130;8.526;2022-12-18T15:41:33;101349.97;;;-7.82;69.70
27685;BME280;46113;50.130;8.526;2022-12-18T15:44:03;101353.19;;;-7.86;69.51
27685;BME280;46113;50.130;8.526;2022-12-18T15:46:29;101353.09;;;-7.71;68.98
27685;BME280;46113;50.130;8.526;2022-12-18T15:48:57;101353.50;;;-7.80;69.21
27685;BME280;46113;50.130;8.526;2022-12-18T15:51:29;101357.03;;;-7.94;69.63
27685;BME280;46113;50.130;8.526;2022-12-18T15:53:59;101343.63;;;-7.88;69.79
27685;BME280;46113;50.130;8.526;2022-12-18T15:56:27;101350.72;;;-7.84;69.73
27685;BME280;46113;50.130;8.526;2022-12-18T15:59:15;101345.25;;;-7.90;69.97
27685;BME280;46113;50.130;8.526;2022-12-18T16:01:45;101350.63;;;-7.86;69.64
27685;BME280;46113;50.130;8.526;2022-12-18T16:04:13;101348.06;;;-7.86;70.03
27685;BME280;46113;50.130;8.526;2022-12-18T16:06:40;101352.38;;;-7.85;69.93
27685;BME280;46113;50.130;8.526;2022-12-18T16:09:28;101352.88;;;-7.92;70.29
27685;BME280;46113;50.130;8.526;2022-12-18T16:11:54;101348.59;;;-7.92;70.08
27685;BME280;46113;50.130;8.526;2022-12-18T16:14:26;101348.06;;;-7.86;70.09
27685;BME280;46113;50.130;8.526;2022-12-18T16:16:59;101345.31;;;-7.89;70.56
27685;BME280;46113;50.130;8.526;2022-12-18T16:19:26;101335.03;;;-7.72;69.84
27685;BME280;46113;50.130;8.526;2022-12-18T16:21:55;101340.38;;;-7.68;69.92
27685;BME280;46113;50.130;8.526;2022-12-18T16:24:25;101332.28;;;-7.75;69.68
27685;BME280;46113;50.130;8.526;2022-12-18T16:26:52;101327.16;;;-7.75;70.10
27685;BME280;46113;50.130;8.526;2022-12-18T16:29:23;101320.03;;;-7.81;70.19
27685;BME280;46113;50.130;8.526;2022-12-18T16:31:54;101322.66;;;-7.80;70.71
27685;BME280;46113;50.130;8.526;2022-12-18T16:37:02;101322.81;;;-7.76;70.21
27685;BME280;46113;50.130;8.526;2022-12-18T16:39:35;101324.22;;;-7.65;70.04
27685;BME280;46113;50.130;8.526;2022-12-18T16:42:13;101321.53;;;-7.68;70.31
27685;BME280;46113;50.130;8.526;2022-12-18T16:44:47;101322.69;;;-7.61;69.56
27685;BME280;46113;50.130;8.526;2022-12-18T16:47:14;101318.97;;;-7.68;70.03
27685;BME280;46113;50.130;8.526;2022-12-18T16:49:43;101330.19;;;-7.66;69.77
27685;BME280;46113;50.130;8.526;2022-12-18T16:52:12;101323.84;;;-7.73;69.80
27685;BME280;46113;50.130;8.526;2022-12-18T16:54:39;101321.38;;;-7.71;69.78
27685;BME280;46113;50.130;8.526;2022-12-18T16:57:08;101316.53;;;-7.65;69.76
27685;BME280;46113;50.130;8.526;2022-12-18T16:59:36;101311.38;;;-7.65;69.49
27685;BME280;46113;50.130;8.526;2022-12-18T17:02:03;101318.41;;;-7.79;70.40
27685;BME280;46113;50.130;8.526;2022-12-18T17:04:35;101314.47;;;-7.72;70.44
27685;BME280;46113;50.130;8.526;2022-12-18T17:07:04;101317.63;;;-7.60;69.98
27685;BME280;46113;50.130;8.526;2022-12-18T17:09:30;101311.69;;;-7.59;69.79
27685;BME280;46113;50.130;8.526;2022-12-18T17:11:57;101308.97;;;-7.62;69.94
27685;BME280;46113;50.130;8.526;2022-12-18T17:14:29;101310.50;;;-7.66;70.14
27685;BME280;46113;50.130;8.526;2022-12-18T17:17:13;101307.94;;;-7.66;70.53
27685;BME280;46113;50.130;8.526;2022-12-18T17:19:50;101307.72;;;-7.52;70.49
27685;BME280;46113;50.130;8.526;2022-12-18T17:22:18;101311.94;;;-7.54;70.37
27685;BME280;46113;50.130;8.526;2022-12-18T17:24:45;101315.03;;;-7.43;69.71
27685;BME280;46113;50.130;8.526;2022-12-18T17:27:13;101301.44;;;-7.41;69.50
27685;BME280;46113;50.130;8.526;2022-12-18T17:29:40;101307.22;;;-7.45;70.55
27685;BME280;46113;50.130;8.526;2022-12-18T17:32:13;101297.06;;;-7.42;69.85
27685;BME280;46113;50.130;8.526;2022-12-18T17:34:41;101295.41;;;-7.41;69.55
27685;BME280;46113;50.130;8.526;2022-12-18T17:37:11;101293.00;;;-7.38;69.84
27685;BME280;46113;50.130;8.526;2022-12-18T17:39:38;101295.69;;;-7.35;69.52
27685;BME280;46113;50.130;8.526;2022-12-18T17:42:08;101296.66;;;-7.33;69.95
27685;BME280;46113;50.130;8.526;2022-12-18T17:44:41;101297.81;;;-7.44;69.55
27685;BME280;46113;50.130;8.526;2022-12-18T17:47:08;101288.72;;;-7.37;69.85
27685;BME280;46113;50.130;8.526;2022-12-18T17:49:37;101289.00;;;-7.49;69.99
27685;BME280;46113;50.130;8.526;2022-12-18T17:52:04;101294.38;;;-7.45;70.15
27685;BME280;46113;50.130;8.526;2022-12-18T17:54:33;101299.72;;;-7.40;70.30
27685;BME280;46113;50.130;8.526;2022-12-18T17:57:05;101298.34;;;-7.33;70.42
27685;BME280;46113;50.130;8.526;2022-12-18T17:59:35;101304.03;;;-7.22;70.22
27685;BME280;46113;50.130;8.526;2022-12-18T18:02:20;101306.59;;;-7.22;70.04
27685;BME280;46113;50.130;8.526;2022-12-18T18:04:51;101300.25;;;-7.29;69.82
27685;BME280;46113;50.130;8.526;2022-12-18T18:07:38;101303.69;;;-7.29;69.85
27685;BME280;46113;50.130;8.526;2022-12-18T18:11:15;101297.25;;;-7.20;70.22
27685;BME280;46113;50.130;8.526;2022-12-18T18:14:49;101297.88;;;-7.06;69.50
27685;BME280;46113;50.130;8.526;2022-12-18T18:17:18;101298.63;;;-7.09;69.35
27685;BME280;46113;50.130;8.526;2022-12-18T18:19:44;101292.63;;;-7.09;69.57
27685;BME280;46113;50.130;8.526;2022-12-18T18:22:15;101294.38;;;-7.08;69.94
27685;BME280;46113;50.130;8.526;2022-12-18T18:24:44;101290.25;;;-7.05;69.33
27685;BME280;46113;50.130;8.526;2022-12-18T18:27:12;101287.00;;;-7.01;69.76
27685;BME280;46113;50.130;8.526;2022-12-18T18:29:39;101293.63;;;-7.06;69.79
27685;BME280;46113;50.130;8.526;2022-12-18T18:32:11;101291.56;;;-6.95;69.47
27685;BME280;46113;50.130;8.526;2022-12-18T18:34:50;101287.44;;;-6.91;69.17
27685;BME280;46113;50.130;8.526;2022-12-18T18:37:18;101284.06;;;-6.90;68.72
27685;BME280;46113;50.130;8.526;2022-12-18T18:39:45;101279.81;;;-6.90;69.26
27685;BME280;46113;50.130;8.526;2022-12-18T18:42:11;101280.66;;;-6.89;68.99
27685;BME280;46113;50.130;8.526;2022-12-18T18:44:38;101285.81;;;-6.89;68.96
27685;BME280;46113;50.130;8.526;2022-12-18T18:47:11;101277.16;;;-6.91;69.34
27685;BME280;46113;50.130;8.526;2022-12-18T18:49:38;101269.44;;;-6.91;69.11
27685;BME280;46113;50.130;8.526;2022-12-18T18:52:14;101269.19;;;-6.96;69.10
27685;BME280;46113;50.130;8.526;2022-12-18T18:55:15;101269.28;;;-6.94;69.37
27685;BME280;46113;50.130;8.526;2022-12-18T18:57:53;101263.19;;;-6.96;69.71
27685;BME280;46113;50.130;8.526;2022-12-18T19:00:20;101264.19;;;-6.93;69.24
27685;BME280;46113;50.130;8.526;2022-12-18T19:03:02;101254.91;;;-6.89;69.59
27685;BME280;46113;50.130;8.526;2022-12-18T19:12:16;101240.22;;;-6.92;69.08
27685;BME280;46113;50.130;8.526;2022-12-18T19:15:16;101241.22;;;-6.88;69.54
27685;BME280;46113;50.130;8.526;2022-12-18T19:33:35;101234.47;;;-6.86;69.96
27685;BME280;46113;50.130;8.526;2022-12-18T19:36:21;101232.66;;;-6.89;70.60
27685;BME280;46113;50.130;8.526;2022-12-18T19:38:50;101234.94;;;-6.75;69.92
27685;BME280;46113;50.130;8.526;2022-12-18T19:41:18;101229.94;;;-6.72;69.73
27685;BME280;46113;50.130;8.526;2022-12-18T19:43:46;101222.28;;;-6.70;69.70
27685;BME280;46113;50.130;8.526;2022-12-18T19:46:16;101226.09;;;-6.82;69.69
27685;BME280;46113;50.130;8.526;2022-12-18T19:48:49;101225.72;;;-6.70;69.69
27685;BME280;46113;50.130;8.526;2022-12-18T19:51:19;101226.63;;;-6.69;69.47
27685;BME280;46113;50.130;8.526;2022-12-18T19:53:46;101220.13;;;-6.61;69.26
27685;BME280;46113;50.130;8.526;2022-12-18T19:56:15;101215.09;;;-6.58;69.41
27685;BME280;46113;50.130;8.526;2022-12-18T19:58:42;101209.28;;;-6.54;69.16
27685;BME280;46113;50.130;8.526;2022-12-18T20:01:14;101213.91;;;-6.66;69.52
27685;BME280;46113;50.130;8.526;2022-12-18T20:03:43;101212.50;;;-6.78;69.82
27685;BME280;46113;50.130;8.526;2022-12-18T20:06:27;101214.00;;;-6.63;69.74
27685;BME280;46113;50.130;8.526;2022-12-18T20:08:57;101211.66;;;-6.58;69.33
27685;BME280;46113;50.130;8.526;2022-12-18T20:11:27;101212.59;;;-6.56;68.97
27685;BME280;46113;50.130;8.526;2022-12-18T20:13:54;101217.97;;;-6.71;69.99
27685;BME280;46113;50.130;8.526;2022-12-18T20:16:21;101217.56;;;-6.61;69.71